Cook, MN

1:01 PM CDT on June 25, 2017 (GMT -0500)
Cook Municipal

Weather History for KCQM - October, 2012

Change the Weather History Date:

Thursday, October 25, 2012

  Actual Average Record
Temperature  
Mean Temperature 36 °F -  
Max Temperature 39 °F 44 °F 64 °F (2000)
Min Temperature 32 °F 29 °F 15 °F (2002)
Degree Days  
Heating Degree Days 30    
Moisture  
Dew Point 32 °F    
Average Humidity 92    
Maximum Humidity 100    
Minimum Humidity 81    
Precipitation  
Precipitation 0.10 in - - ()
Sea Level Pressure  
Sea Level Pressure 29.82 in    
Wind  
Wind Speed 7 mph (WNW)    
Max Wind Speed 10 mph    
Max Gust Speed 17 mph    
Visibility 7 miles    
Events Rain , Snow    
Averages and records for this station are not official NWS values.
T = Trace of Precipitation, MM = Missing Value Source: NWS Daily Summary

Daily Weather History Graph

Daily Weather History Graph

Search for Another Location

Airport or City:

Trip Planner

Search our weather history database for the weather conditions in past years. The results will help you decide how hot, cold, wet, or windy it might be!

Date:

Astronomy

Oct. 25, 2012 Rise Set
Actual Time 7:45 AM CDT 6:03 PM CDT
Civil Twilight 7:13 AM CDT 6:35 PM CDT
Nautical Twilight 6:37 AM CDT 7:11 PM CDT
Astronomical Twilight 6:01 AM CDT 7:47 PM CDT
Moon 4:03 PM CDT 3:26 AM CDT
Length of Visible Light 11h 21m
Length of Day
10h 17m
Waxing Gibbous, 84% of the Moon is Illuminated
Oct 25
Waxing Gibbous
Oct 29
Full
Nov 6
Last Quarter
Nov 13
New
Nov 20
First Quarter

Hourly Weather History & Observations

Time (CDT) Temp. Windchill Dew Point Humidity Pressure Visibility Wind Dir Wind Speed Gust Speed Precip Events Conditions
12:16 AM 39.2 °F 33.6 °F 37.4 °F 93% 29.89 in 10.0 mi NW 8.1 mph - N/A   Overcast
12:37 AM 39.2 °F 33.0 °F 37.4 °F 93% 29.87 in 10.0 mi NW 9.2 mph - N/A   Overcast
12:56 AM 39.2 °F 35.0 °F 37.4 °F 93% 29.87 in 10.0 mi NW 5.8 mph - N/A   Overcast
1:17 AM 39.2 °F 35.0 °F 37.4 °F 93% 29.86 in 10.0 mi NNW 5.8 mph - N/A   Overcast
1:36 AM 39.2 °F 33.6 °F 37.4 °F 93% 29.84 in 10.0 mi NNW 8.1 mph - N/A   Overcast
1:56 AM 39.2 °F 33.6 °F 37.4 °F 93% 29.85 in 10.0 mi NNW 8.1 mph - N/A   Overcast
2:36 AM 37.4 °F - 37.4 °F 100% 29.84 in 10.0 mi Calm Calm - N/A   Overcast
2:57 AM 39.2 °F 35.0 °F 37.4 °F 93% 29.81 in 10.0 mi NNW 5.8 mph - N/A   Overcast
3:16 AM 39.2 °F 33.6 °F 37.4 °F 93% 29.79 in 10.0 mi NNW 8.1 mph - N/A   Overcast
3:36 AM 39.2 °F 33.6 °F 37.4 °F 93% 29.83 in 10.0 mi NW 8.1 mph - N/A   Light Drizzle
3:57 AM 37.4 °F 32.8 °F 37.4 °F 100% 29.80 in 10.0 mi NW 5.8 mph - N/A   Drizzle
4:17 AM 37.4 °F 32.8 °F 35.6 °F 93% 29.81 in 10.0 mi WNW 5.8 mph - N/A Rain Light Rain
4:36 AM 37.4 °F 32.8 °F 35.6 °F 93% 29.82 in 10.0 mi NW 5.8 mph - N/A Rain Light Rain
4:57 AM 35.6 °F 29.9 °F 35.6 °F 100% 29.82 in 7.0 mi WNW 6.9 mph - N/A Rain Light Rain
5:17 AM 33.8 °F 27.7 °F 33.8 °F 100% 29.80 in 2.5 mi WNW 6.9 mph - 0.01 in Rain Light Rain
5:36 AM 33.8 °F 28.6 °F 32.0 °F 93% 29.80 in 2.5 mi WNW 5.8 mph - 0.03 in Snow Light Snow
5:57 AM 33.8 °F 28.6 °F 32.0 °F 93% 29.79 in 4.0 mi WNW 5.8 mph - N/A Snow Light Snow
6:17 AM 33.8 °F 27.7 °F 32.0 °F 93% 29.78 in 3.0 mi NW 6.9 mph - 0.01 in Snow Light Snow
6:57 AM 33.8 °F 29.6 °F 32.0 °F 93% 29.80 in 2.5 mi WNW 4.6 mph - N/A Snow Light Snow
7:17 AM 32.0 °F 26.4 °F 32.0 °F 100% 29.81 in 1.5 mi WNW 5.8 mph - N/A Snow Light Snow
7:36 AM 32.0 °F 26.4 °F 32.0 °F 100% 29.81 in 1.0 mi WNW 5.8 mph - 0.02 in Snow Snow
7:57 AM 32.0 °F 27.5 °F 32.0 °F 100% 29.81 in 1.0 mi WNW 4.6 mph - N/A Snow Snow
8:36 AM 32.0 °F 27.5 °F 32.0 °F 100% 29.77 in 0.8 mi NW 4.6 mph - 0.01 in Snow Light Snow
8:57 AM 32.0 °F 26.4 °F 32.0 °F 100% 29.77 in 1.0 mi NW 5.8 mph - N/A Snow Light Snow
9:16 AM 32.0 °F 24.8 °F 32.0 °F 100% 29.77 in 0.8 mi WNW 8.1 mph - N/A Snow Light Snow
9:57 AM 32.0 °F 25.6 °F 32.0 °F 100% 29.76 in 1.2 mi NW 6.9 mph - N/A Snow Light Snow
10:16 AM 32.0 °F 25.6 °F 32.0 °F 100% 29.76 in 1.0 mi WNW 6.9 mph - 0.01 in Snow Light Snow
10:37 AM 32.0 °F 26.4 °F 32.0 °F 100% 29.76 in 1.0 mi WNW 5.8 mph - 0.01 in Snow Light Snow
10:56 AM 32.0 °F 26.4 °F 32.0 °F 100% 29.77 in 1.0 mi WNW 5.8 mph - N/A Snow Light Snow
11:16 AM 32.0 °F 25.6 °F 32.0 °F 100% 29.78 in 0.5 mi WNW 6.9 mph - N/A Snow Snow
11:36 AM 32.0 °F 25.6 °F 32.0 °F 100% 29.78 in 0.5 mi WNW 6.9 mph - 0.01 in Snow Snow
12:17 PM 32.0 °F 24.8 °F 30.2 °F 93% 29.78 in 0.5 mi WNW 8.1 mph - N/A Snow Snow
12:36 PM 32.0 °F 26.4 °F 30.2 °F 93% 29.79 in 0.2 mi WNW 5.8 mph - N/A Snow Snow
12:56 PM 32.0 °F 27.5 °F 30.2 °F 93% 29.78 in 1.0 mi WNW 4.6 mph - N/A Snow Light Snow
1:17 PM 32.0 °F 27.5 °F 30.2 °F 93% 29.77 in 0.8 mi WNW 4.6 mph - 0.01 in Snow Light Snow
1:36 PM 32.0 °F 28.7 °F 30.2 °F 93% 29.78 in 2.0 mi WNW 3.5 mph - 0.01 in Snow Light Snow
1:56 PM 32.0 °F 26.4 °F 30.2 °F 93% 29.78 in 10.0 mi WNW 5.8 mph - N/A Snow Light Snow
2:17 PM 33.8 °F 28.6 °F 30.2 °F 87% 29.78 in 10.0 mi West 5.8 mph - N/A   Mostly Cloudy
3:17 PM 33.8 °F 27.0 °F 30.2 °F 87% 29.79 in 10.0 mi West 8.1 mph - N/A   Overcast
3:36 PM 33.8 °F 27.0 °F 30.2 °F 87% 29.80 in 10.0 mi West 8.1 mph - N/A   Overcast
3:56 PM 33.8 °F 25.8 °F 32.0 °F 93% 29.80 in 10.0 mi West 10.4 mph - N/A   Overcast
4:17 PM 33.8 °F 27.0 °F 30.2 °F 87% 29.81 in 10.0 mi West 8.1 mph - N/A   Mostly Cloudy
4:36 PM 33.8 °F 25.8 °F 30.2 °F 87% 29.81 in 10.0 mi West 10.4 mph 16.1 mph N/A   Overcast
4:57 PM 33.8 °F 25.8 °F 30.2 °F 87% 29.82 in 10.0 mi West 10.4 mph - N/A   Overcast
5:16 PM 33.8 °F 25.8 °F 30.2 °F 87% 29.83 in 7.0 mi West 10.4 mph - N/A   Overcast
5:36 PM 33.8 °F 25.8 °F 30.2 °F 87% 29.83 in 10.0 mi West 10.4 mph - N/A   Overcast
5:56 PM 33.8 °F 27.0 °F 30.2 °F 87% 29.84 in 10.0 mi West 8.1 mph - N/A   Overcast
6:16 PM 33.8 °F 27.7 °F 30.2 °F 87% 29.84 in 10.0 mi West 6.9 mph - N/A   Overcast
6:37 PM 33.8 °F 27.0 °F 30.2 °F 87% 29.85 in 10.0 mi West 8.1 mph - N/A   Overcast
6:56 PM 33.8 °F 27.7 °F 30.2 °F 87% 29.85 in 10.0 mi West 6.9 mph - N/A   Overcast
7:16 PM 33.8 °F 27.7 °F 30.2 °F 87% 29.85 in 10.0 mi West 6.9 mph - N/A   Overcast
7:36 PM 33.8 °F 25.8 °F 30.2 °F 87% 29.86 in 10.0 mi West 10.4 mph - N/A   Overcast
7:56 PM 33.8 °F 26.4 °F 30.2 °F 87% 29.87 in 10.0 mi West 9.2 mph 17.3 mph N/A   Overcast
8:17 PM 33.8 °F 26.4 °F 30.2 °F 87% 29.88 in 10.0 mi West 9.2 mph - N/A   Overcast
8:36 PM 33.8 °F 27.7 °F 30.2 °F 87% 29.88 in 10.0 mi West 6.9 mph - N/A   Overcast
8:56 PM 33.8 °F 25.8 °F 28.4 °F 81% 29.89 in 10.0 mi West 10.4 mph - N/A   Overcast
9:17 PM 32.0 °F 26.4 °F 28.4 °F 87% 29.89 in 10.0 mi WSW 5.8 mph - N/A   Mostly Cloudy
9:36 PM 32.0 °F 26.4 °F 28.4 °F 87% 29.89 in 10.0 mi WSW 5.8 mph - N/A   Scattered Clouds
9:56 PM 32.0 °F 26.4 °F 28.4 °F 87% 29.90 in 10.0 mi WSW 5.8 mph - N/A   Scattered Clouds
10:36 PM 32.0 °F 24.8 °F 28.4 °F 87% 29.90 in 10.0 mi WSW 8.1 mph - N/A   Overcast
10:56 PM 32.0 °F 24.2 °F 28.4 °F 87% 29.90 in 10.0 mi WSW 9.2 mph - N/A   Overcast
11:16 PM 32.0 °F 24.8 °F 28.4 °F 87% 29.90 in 7.0 mi WSW 8.1 mph - N/A   Overcast
11:37 PM 32.0 °F 24.8 °F 30.2 °F 93% 29.90 in 7.0 mi WSW 8.1 mph - N/A   Overcast
11:56 PM 32.0 °F 24.8 °F 30.2 °F 93% 29.91 in 10.0 mi West 8.1 mph - N/A   Overcast